Time;durP1;ratioP1;P1;durP2;ratioP2;P2;SDS_P1;SDS_P2;PMS_P1;PMS_P2;Temp;Humidity;BMP_temperature;BMP_pressure;BME280_temperature;BME280_humidity;BME280_pressure;Samples;Min_cycle;Max_cycle;Signal;HPM_P1;HPM_P2
2020/12/23 00:00:16;;;;;;;6.97;3.52;;;;;;;3.94;78.31;98830.18;125798;1101;104478;-71
2020/12/23 00:03:01;;;;;;;7.17;3.30;;;;;;;3.94;77.95;98838.08;125749;1093;105112;-70
2020/12/23 00:05:29;;;;;;;6.30;3.13;;;;;;;3.94;77.79;98837.20;125750;1093;104414;-70
2020/12/23 00:07:56;;;;;;;5.97;3.12;;;;;;;3.94;77.78;98835.45;125660;1093;104548;-71
2020/12/23 00:10:22;;;;;;;6.50;3.67;;;;;;;3.96;78.15;98844.12;125735;1096;104423;-69
2020/12/23 00:12:49;;;;;;;8.33;3.80;;;;;;;3.98;78.28;98844.89;125659;1097;104568;-69
2020/12/23 00:15:17;;;;;;;6.27;3.13;;;;;;;4.01;78.19;98841.25;125627;1096;104596;-70
2020/12/23 00:17:44;;;;;;;11.53;4.17;;;;;;;4.00;78.28;98842.17;126295;1101;104974;-71
2020/12/23 00:20:11;;;;;;;11.40;4.00;;;;;;;4.00;77.96;98848.30;125726;1096;104964;-72
2020/12/23 00:22:39;;;;;;;8.23;3.63;;;;;;;4.04;78.22;98845.52;125803;1093;104420;-70
2020/12/23 00:25:07;;;;;;;9.20;4.28;;;;;;;4.07;78.31;98840.11;125684;1101;104423;-71
2020/12/23 00:27:34;;;;;;;8.97;3.73;;;;;;;4.08;78.17;98841.78;126524;1093;104576;-71
2020/12/23 00:30:01;;;;;;;8.90;3.53;;;;;;;4.07;78.12;98856.73;125698;1101;104424;-70
2020/12/23 00:32:32;;;;;;;9.60;3.83;;;;;;;4.05;78.28;98855.96;125766;1101;104883;-70
2020/12/23 00:34:59;;;;;;;10.47;4.43;;;;;;;4.08;77.97;98861.08;125782;1094;104628;-69
2020/12/23 00:37:26;;;;;;;10.03;4.07;;;;;;;4.09;78.11;98854.88;125863;1102;104535;-70
2020/12/23 00:39:53;;;;;;;10.53;4.10;;;;;;;4.12;78.30;98857.37;125627;1101;104484;-70
2020/12/23 00:42:22;;;;;;;7.37;3.95;;;;;;;4.16;78.30;98860.69;125808;1101;105028;-71
2020/12/23 00:44:49;;;;;;;8.50;4.30;;;;;;;4.20;78.30;98874.57;125745;1096;104472;-70
2020/12/23 00:47:16;;;;;;;9.93;4.57;;;;;;;4.22;78.01;98878.81;125877;1096;104528;-71
2020/12/23 00:49:43;;;;;;;7.62;3.92;;;;;;;4.24;78.11;98876.96;125705;1096;104418;-71
2020/12/23 00:52:10;;;;;;;7.43;3.90;;;;;;;4.29;78.38;98874.09;125643;1096;104477;-71
2020/12/23 00:54:37;;;;;;;9.13;4.15;;;;;;;4.34;78.23;98882.61;125889;1096;104423;-69
2020/12/23 00:57:04;;;;;;;9.27;4.23;;;;;;;4.37;78.32;98873.72;125805;1101;104640;-70
2020/12/23 00:59:31;;;;;;;10.48;4.47;;;;;;;4.40;77.98;98876.20;125822;1101;104545;-70
2020/12/23 01:01:59;;;;;;;9.97;4.30;;;;;;;4.42;78.21;98869.08;125638;1102;104631;-71
2020/12/23 01:04:28;;;;;;;7.43;4.10;;;;;;;4.44;78.36;98870.69;125714;1101;104695;-71
2020/12/23 01:06:58;;;;;;;8.55;4.10;;;;;;;4.47;78.19;98877.60;126539;1096;104587;-70
2020/12/23 01:09:25;;;;;;;9.00;4.30;;;;;;;4.47;78.33;98874.97;125716;1101;104606;-69
2020/12/23 01:11:52;;;;;;;8.83;4.27;;;;;;;4.51;78.32;98868.59;125634;1101;104541;-70
2020/12/23 01:14:20;;;;;;;9.47;4.20;;;;;;;4.52;78.36;98872.09;125725;1101;104435;-70
2020/12/23 01:16:47;;;;;;;8.65;4.22;;;;;;;4.53;78.43;98868.53;125772;1096;104529;-70
2020/12/23 01:19:14;;;;;;;10.27;5.07;;;;;;;4.54;78.22;98875.50;125794;1096;104510;-71
2020/12/23 01:21:49;;;;;;;11.13;4.83;;;;;;;4.55;78.13;98871.94;125757;1096;104446;-70
2020/12/23 01:24:16;;;;;;;10.83;4.70;;;;;;;4.57;78.37;98873.55;125746;1101;104567;-70
2020/12/23 01:26:44;;;;;;;11.00;4.93;;;;;;;4.57;78.45;98873.55;125840;1101;104439;-70
2020/12/23 01:29:11;;;;;;;9.63;4.30;;;;;;;4.59;78.22;98869.05;125726;1101;106100;-70
2020/12/23 01:31:40;;;;;;;8.55;4.15;;;;;;;4.62;78.48;98873.33;125832;1096;104509;-70
2020/12/23 01:34:11;;;;;;;10.37;4.63;;;;;;;4.62;78.00;98875.97;125887;1101;104507;-70
2020/12/23 01:36:39;;;;;;;6.20;4.13;;;;;;;4.60;78.34;98873.39;125777;1101;104465;-70
2020/12/23 01:39:05;;;;;;;12.47;4.90;;;;;;;4.58;78.41;98877.05;125795;1102;104459;-70
2020/12/23 01:41:32;;;;;;;9.83;4.57;;;;;;;4.58;78.45;98877.89;125745;1093;104942;-70
2020/12/23 01:43:59;;;;;;;10.10;4.50;;;;;;;4.62;78.28;98873.33;125729;1093;104468;-71
2020/12/23 01:46:32;;;;;;;9.07;4.47;;;;;;;4.62;78.39;98868.06;126317;1102;104418;-70
2020/12/23 01:49:09;;;;;;;10.27;4.50;;;;;;;4.64;78.63;98868.84;125757;1093;104504;-70
2020/12/23 01:51:38;;;;;;;8.63;3.87;;;;;;;4.68;78.17;98867.75;125711;1097;104436;-70
2020/12/23 01:54:06;;;;;;;10.03;4.50;;;;;;;4.66;78.49;98861.70;126318;1093;102721;-71
2020/12/23 01:56:37;;;;;;;9.93;4.47;;;;;;;4.66;78.28;98872.24;125851;1101;104528;-70
2020/12/23 01:59:04;;;;;;;12.70;4.90;;;;;;;4.68;78.40;98869.52;125801;1093;104490;-70
2020/12/23 02:01:36;;;;;;;10.87;4.60;;;;;;;4.71;78.66;98877.27;125748;1093;104443;-70
2020/12/23 02:04:19;;;;;;;8.17;4.30;;;;;;;4.69;78.47;98871.22;125613;1097;104420;-71
2020/12/23 02:06:46;;;;;;;8.78;4.30;;;;;;;4.66;78.22;98874.88;125742;1101;104398;-69
2020/12/23 02:09:15;;;;;;;10.63;4.93;;;;;;;4.64;78.27;98870.60;126744;1101;104423;-71
2020/12/23 02:11:48;;;;;;;10.07;4.57;;;;;;;4.61;78.39;98874.26;126276;1101;104429;-71
2020/12/23 02:14:15;;;;;;;10.63;4.65;;;;;;;4.57;78.29;98870.08;125808;1101;104477;-70
2020/12/23 02:16:42;;;;;;;11.80;4.67;;;;;;;4.57;78.58;98875.34;125812;1101;104417;-71
2020/12/23 02:19:14;;;;;;;10.53;4.90;;;;;;;4.58;78.32;98871.78;125832;1101;104961;-71
2020/12/23 02:21:41;;;;;;;10.48;4.40;;;;;;;4.58;78.29;98869.98;125762;1093;104547;-71
2020/12/23 02:24:08;;;;;;;9.23;4.53;;;;;;;4.62;78.29;98868.06;125804;1101;104448;-70
2020/12/23 02:26:36;;;;;;;9.43;4.42;;;;;;;4.64;78.59;98860.93;125798;1101;104583;-69
2020/12/23 02:29:03;;;;;;;10.87;4.23;;;;;;;4.62;78.30;98868.06;125672;1101;104503;-71
2020/12/23 02:31:30;;;;;;;7.07;4.00;;;;;;;4.61;78.63;98879.53;125854;1101;104458;-70
2020/12/23 02:33:57;;;;;;;9.33;4.17;;;;;;;4.61;78.32;98871.63;125867;1101;104541;-70
2020/12/23 02:36:24;;;;;;;10.57;4.20;;;;;;;4.60;78.20;98877.83;125832;1101;104467;-70
2020/12/23 02:38:51;;;;;;;6.90;3.73;;;;;;;4.58;78.53;98875.25;125888;1101;104574;-70
2020/12/23 02:41:18;;;;;;;7.23;3.73;;;;;;;4.60;78.32;98877.83;125733;1093;104445;-70
2020/12/23 02:43:45;;;;;;;8.47;4.37;;;;;;;4.59;78.50;98876.12;125729;1101;104551;-70
2020/12/23 02:46:12;;;;;;;7.97;3.90;;;;;;;4.58;78.30;98883.16;125754;1093;104920;-70
2020/12/23 02:48:43;;;;;;;6.93;3.90;;;;;;;4.59;78.46;98882.23;125808;1101;104446;-70
2020/12/23 02:51:10;;;;;;;6.62;3.72;;;;;;;4.60;78.40;98881.30;125716;1101;104551;-70
2020/12/23 02:53:36;;;;;;;7.60;3.57;;;;;;;4.59;78.38;98886.66;126717;1101;104503;-71
2020/12/23 02:56:07;;;;;;;7.53;3.87;;;;;;;4.59;78.43;98882.23;125896;1101;104612;-71
2020/12/23 02:58:34;;;;;;;8.43;3.60;;;;;;;4.59;78.24;98882.23;125868;1101;104483;-69
2020/12/23 03:01:01;;;;;;;7.60;3.70;;;;;;;4.59;78.50;98882.23;127206;1101;104577;-70
2020/12/23 03:03:28;;;;;;;8.43;4.10;;;;;;;4.58;78.35;98872.62;125797;1093;104447;-70
2020/12/23 03:05:59;;;;;;;7.10;3.77;;;;;;;4.62;78.55;98883.87;125758;1101;104929;-71
2020/12/23 03:08:26;;;;;;;11.57;4.67;;;;;;;4.62;78.63;98866.27;126536;1101;104505;-70
2020/12/23 03:10:53;;;;;;;6.60;3.30;;;;;;;4.62;78.65;98868.90;125876;1101;104420;-70
2020/12/23 03:13:20;;;;;;;7.33;3.63;;;;;;;4.62;78.57;98879.44;125734;1101;104484;-70
2020/12/23 03:15:47;;;;;;;5.97;3.53;;;;;;;4.59;78.32;98884.86;125839;1101;104491;-70
2020/12/23 03:18:14;;;;;;;8.53;3.83;;;;;;;4.59;78.31;98886.66;125844;1101;104526;-72
2020/12/23 03:20:42;;;;;;;6.30;3.50;;;;;;;4.59;78.30;98879.59;125873;1101;104471;-71
2020/12/23 03:23:09;;;;;;;9.40;3.80;;;;;;;4.60;78.48;98883.09;125974;1102;104424;-70
2020/12/23 03:25:37;;;;;;;7.80;3.93;;;;;;;4.59;78.49;98882.23;125837;1101;104420;-70
2020/12/23 03:28:04;;;;;;;6.83;3.50;;;;;;;4.60;78.87;98888.36;125717;1096;104500;-71
2020/12/23 03:30:31;;;;;;;9.30;4.40;;;;;;;4.61;78.60;98890.06;125806;1093;104500;-71
2020/12/23 03:32:58;;;;;;;7.43;3.60;;;;;;;4.62;78.52;98891.77;125747;1101;104427;-70
2020/12/23 03:35:24;;;;;;;10.45;3.95;;;;;;;4.60;78.54;98883.93;125747;1093;104489;-70
2020/12/23 03:37:51;;;;;;;5.87;3.57;;;;;;;4.62;79.01;98883.87;125865;1101;104499;-71
2020/12/23 03:40:20;;;;;;;7.83;3.87;;;;;;;4.61;78.68;98880.37;127186;1101;104443;-70
2020/12/23 03:42:47;;;;;;;5.90;3.40;;;;;;;4.65;78.54;98885.48;125794;1093;104999;-70
2020/12/23 03:45:14;;;;;;;6.53;3.30;;;;;;;4.66;78.47;98888.05;125746;1093;104465;-69
2020/12/23 03:47:41;;;;;;;7.10;3.60;;;;;;;4.67;78.74;98895.03;125752;1101;104419;-71
2020/12/23 03:50:08;;;;;;;6.43;3.80;;;;;;;4.69;78.33;98889.66;125704;1093;104449;-69
2020/12/23 03:52:35;;;;;;;7.47;3.97;;;;;;;4.70;78.31;98900.11;125775;1101;104480;-69
2020/12/23 03:55:03;;;;;;;7.57;3.50;;;;;;;4.71;78.58;98904.45;125847;1093;104433;-70
2020/12/23 03:57:30;;;;;;;7.50;3.80;;;;;;;4.72;78.56;98903.52;125833;1102;104454;-69
2020/12/23 03:59:57;;;;;;;7.60;3.65;;;;;;;4.75;78.73;98897.26;125739;1093;104416;-70
2020/12/23 04:02:24;;;;;;;6.50;3.60;;;;;;;4.76;78.63;98886.63;125769;1101;104919;-70
2020/12/23 04:04:51;;;;;;;7.03;3.80;;;;;;;4.76;78.84;98883.98;125675;1093;104561;-69
2020/12/23 04:07:17;;;;;;;5.93;3.50;;;;;;;4.75;78.46;98886.72;125809;1097;104591;-70
2020/12/23 04:09:47;;;;;;;6.53;3.50;;;;;;;4.70;78.60;98881.66;125682;1101;104529;-69
2020/12/23 04:12:16;;;;;;;7.13;3.33;;;;;;;4.68;78.57;98880.92;126590;1101;104448;-69
2020/12/23 04:14:43;;;;;;;7.97;3.93;;;;;;;4.67;78.62;98881.86;125943;1093;104491;-69
2020/12/23 04:17:13;;;;;;;9.97;4.10;;;;;;;4.68;78.77;98886.19;126953;1101;104430;-69
2020/12/23 04:19:41;;;;;;;9.47;4.37;;;;;;;4.72;78.59;98878.97;126534;1093;104410;-70
2020/12/23 04:22:08;;;;;;;8.33;3.83;;;;;;;4.75;78.80;98873.55;125839;1101;104541;-70
2020/12/23 04:24:39;;;;;;;9.55;4.30;;;;;;;4.77;78.61;98883.06;125784;1101;104606;-71
2020/12/23 04:27:10;;;;;;;10.82;4.17;;;;;;;4.76;78.37;98902.44;125884;1093;104471;-71
2020/12/23 04:29:37;;;;;;;10.00;4.05;;;;;;;4.78;78.71;98899.73;126692;1101;104542;-69
2020/12/23 04:32:04;;;;;;;9.50;4.20;;;;;;;4.81;78.74;98898.71;125726;1097;104439;-70
2020/12/23 04:34:32;;;;;;;9.07;4.20;;;;;;;4.81;78.50;98907.48;125749;1101;104573;-70
2020/12/23 04:36:59;;;;;;;9.77;4.53;;;;;;;4.82;78.74;98910.96;125814;1097;104419;-71
2020/12/23 04:39:26;;;;;;;10.90;4.67;;;;;;;4.75;78.58;98919.17;125769;1096;104500;-71
2020/12/23 04:41:53;;;;;;;8.53;4.23;;;;;;;4.74;78.53;98920.11;125839;1101;104868;-71
2020/12/23 04:44:21;;;;;;;9.65;4.53;;;;;;;4.76;78.62;98925.31;125819;1094;104417;-70
2020/12/23 04:46:49;;;;;;;9.40;4.60;;;;;;;4.76;78.60;98909.50;125993;1101;104449;-70
2020/12/23 04:49:22;;;;;;;9.17;4.37;;;;;;;4.76;78.56;98910.34;125782;1102;104465;-69
2020/12/23 04:51:54;;;;;;;10.53;4.63;;;;;;;4.75;78.48;98908.63;127810;1101;102167;-69
2020/12/23 04:54:22;;;;;;;8.00;3.90;;;;;;;4.76;78.72;98902.44;125793;1101;104619;-73
2020/12/23 04:56:49;;;;;;;9.40;4.20;;;;;;;4.77;78.80;98898.87;125680;1096;104911;-70
2020/12/23 04:59:16;;;;;;;8.83;4.53;;;;;;;4.78;78.70;98910.28;125777;1093;104532;-70
2020/12/23 05:01:43;;;;;;;9.33;4.73;;;;;;;4.79;78.66;98904.08;125792;1102;104494;-70
2020/12/23 05:04:11;;;;;;;9.20;4.33;;;;;;;4.81;78.63;98910.13;127024;1101;104528;-70
2020/12/23 05:06:37;;;;;;;8.20;4.40;;;;;;;4.84;78.65;98909.97;125822;1101;104411;-70
2020/12/23 05:09:09;;;;;;;8.83;4.23;;;;;;;4.86;78.56;98907.23;125797;1101;104607;-70
2020/12/23 05:11:36;;;;;;;11.40;4.87;;;;;;;4.86;78.68;98913.38;125856;1101;104465;-70
2020/12/23 05:14:10;;;;;;;11.77;4.93;;;;;;;4.87;78.68;98914.21;125942;1101;104545;-70
2020/12/23 05:16:40;;;;;;;13.40;5.80;;;;;;;4.86;78.83;98918.65;126610;1101;104446;-70
2020/12/23 05:19:07;;;;;;;13.27;5.27;;;;;;;4.84;78.57;98901.19;125871;1101;104423;-70
2020/12/23 05:21:34;;;;;;;11.73;4.87;;;;;;;4.75;78.80;98908.63;125805;1101;105084;-69
2020/12/23 05:24:07;;;;;;;11.87;5.10;;;;;;;4.74;78.55;98914.00;125796;1102;104436;-70
2020/12/23 05:26:38;;;;;;;11.57;4.93;;;;;;;4.70;78.63;98915.92;125934;1101;104445;-71
2020/12/23 05:29:05;;;;;;;12.87;5.53;;;;;;;4.67;78.76;98909.97;125908;1101;104924;-72
2020/12/23 05:31:35;;;;;;;12.83;4.87;;;;;;;4.66;78.76;98911.77;125877;1101;104426;-70
2020/12/23 05:34:05;;;;;;;14.33;5.67;;;;;;;4.66;78.77;98916.17;126569;1101;104420;-71
2020/12/23 05:36:41;;;;;;;12.93;5.00;;;;;;;4.65;78.40;98910.06;126006;1101;104455;-70
2020/12/23 05:39:09;;;;;;;14.27;6.23;;;;;;;4.60;78.69;98910.27;125878;1102;104427;-71
2020/12/23 05:41:41;;;;;;;14.07;6.03;;;;;;;4.59;78.73;98916.47;126156;1101;104481;-70
2020/12/23 05:44:21;;;;;;;13.20;5.07;;;;;;;4.57;78.46;98918.33;125871;1093;104478;-72
2020/12/23 05:46:51;;;;;;;12.10;5.80;;;;;;;4.56;78.68;98921.89;125833;1102;104439;-71
2020/12/23 05:49:23;;;;;;;13.67;5.33;;;;;;;4.55;78.70;98919.35;125835;1101;104548;-72
2020/12/23 05:51:51;;;;;;;14.60;5.50;;;;;;;4.52;78.56;98916.88;125812;1101;104487;-72
2020/12/23 05:54:20;;;;;;;13.00;5.47;;;;;;;4.50;78.51;98914.30;125778;1101;104420;-71
2020/12/23 05:56:52;;;;;;;14.43;6.47;;;;;;;4.45;78.59;98924.23;125951;1102;104475;-71
2020/12/23 05:59:21;;;;;;;14.83;6.10;;;;;;;4.42;78.43;98916.48;125799;1102;104500;-72
2020/12/23 06:02:00;;;;;;;16.73;5.80;;;;;;;4.42;78.55;98929.66;125983;1101;104424;-70
2020/12/23 06:04:28;;;;;;;11.90;4.80;;;;;;;4.41;78.40;98931.42;126945;1101;102636;-71
2020/12/23 06:07:06;;;;;;;13.87;6.13;;;;;;;4.39;78.46;98940.34;125865;1101;104440;-70
2020/12/23 06:09:48;;;;;;;14.80;5.90;;;;;;;4.38;78.79;98936.00;125869;1101;104439;-70
2020/12/23 06:12:16;;;;;;;14.70;6.13;;;;;;;4.34;78.50;98932.64;126496;1101;104427;-71
2020/12/23 06:14:51;;;;;;;20.43;8.13;;;;;;;4.34;78.91;98947.61;125830;1101;104557;-71
2020/12/23 06:17:23;;;;;;;17.70;6.37;;;;;;;4.38;79.10;98943.90;125809;1101;104526;-71
2020/12/23 06:19:56;;;;;;;13.93;6.05;;;;;;;4.37;78.64;98950.93;126092;1102;104426;-71
2020/12/23 06:22:27;;;;;;;;;;;;;;;4.38;78.79;98952.64;125850;1102;104513;-72
2020/12/23 06:24:54;;;;;;;16.67;6.50;;;;;;;4.37;78.99;98960.62;125805;1101;104533;-71
2020/12/23 06:27:21;;;;;;;16.17;7.13;;;;;;;4.37;78.80;98947.46;125822;1101;104961;-72
2020/12/23 06:29:51;;;;;;;14.73;6.58;;;;;;;4.38;78.84;98941.27;125805;1101;104643;-70
2020/12/23 06:32:20;;;;;;;17.35;7.80;;;;;;;4.37;79.00;98947.46;125967;1101;104525;-73
2020/12/23 06:35:03;;;;;;;18.17;7.73;;;;;;;4.39;78.67;98935.07;125820;1101;104436;-75
2020/12/23 06:37:35;;;;;;;18.97;7.60;;;;;;;4.38;78.67;98936.83;125879;1101;104688;-72
2020/12/23 06:40:10;;;;;;;15.97;7.50;;;;;;;4.38;78.57;98950.00;125963;1101;104545;-71
2020/12/23 06:42:48;;;;;;;15.43;5.90;;;;;;;4.38;78.68;98955.27;125833;1101;104486;-72
2020/12/23 06:45:15;;;;;;;18.80;8.03;;;;;;;4.36;78.72;98961.55;125893;1101;104461;-72
2020/12/23 06:47:46;;;;;;;18.30;8.30;;;;;;;4.37;78.82;98972.00;125909;1101;104557;-73
2020/12/23 06:50:30;;;;;;;19.33;8.60;;;;;;;4.40;78.70;98973.64;125885;1101;104452;-72
2020/12/23 06:53:01;;;;;;;25.50;10.67;;;;;;;4.39;79.10;98967.52;125819;1101;104525;-74
2020/12/23 06:55:49;;;;;;;27.23;10.60;;;;;;;4.41;78.99;98967.45;125857;1101;104481;-72
2020/12/23 06:58:42;;;;;;;20.17;7.50;;;;;;;4.43;78.88;98960.33;125853;1101;104477;-72
2020/12/23 07:01:20;;;;;;;17.65;7.85;;;;;;;4.43;79.20;98970.86;125809;1101;104475;-73
2020/12/23 07:03:56;;;;;;;19.52;8.63;;;;;;;4.45;78.83;98966.38;127472;1101;104500;-72
2020/12/23 07:06:37;;;;;;;17.03;7.00;;;;;;;4.47;78.69;98967.16;125857;1101;104442;-71
2020/12/23 07:09:07;;;;;;;18.03;7.77;;;;;;;4.44;78.75;98962.88;125896;1102;104547;-71
2020/12/23 07:11:37;;;;;;;16.95;7.20;;;;;;;4.43;78.76;98965.59;125859;1101;104547;-71
2020/12/23 07:14:13;;;;;;;20.25;9.00;;;;;;;4.41;78.82;98967.45;125857;1101;104465;-72
2020/12/23 07:16:41;;;;;;;19.27;8.30;;;;;;;4.41;78.99;98981.46;125927;1101;104488;-72
2020/12/23 07:19:15;;;;;;;16.20;6.47;;;;;;;4.39;78.80;98972.78;125839;1102;104571;-73
2020/12/23 07:21:50;;;;;;;20.52;8.30;;;;;;;4.36;78.90;98970.30;125913;1101;104618;-75
2020/12/23 07:24:23;;;;;;;20.33;9.33;;;;;;;4.35;79.01;98973.85;125845;1101;104561;-75
2020/12/23 07:26:52;;;;;;;18.13;7.70;;;;;;;4.36;78.99;98970.30;125867;1101;104436;-76
2020/12/23 07:29:21;;;;;;;19.70;8.37;;;;;;;4.35;79.15;98963.31;125896;1101;104520;-75
2020/12/23 07:31:52;;;;;;;20.90;9.23;;;;;;;4.38;79.20;98971.07;125920;1101;104490;-72
2020/12/23 07:34:21;;;;;;;18.35;9.10;;;;;;;4.37;78.85;98974.63;125919;1101;104487;-72
2020/12/23 07:36:56;;;;;;;20.30;8.23;;;;;;;4.41;79.26;98975.36;125882;1101;104472;-72
2020/12/23 07:39:23;;;;;;;21.40;8.87;;;;;;;4.45;79.47;98966.38;125853;1101;104417;-72
2020/12/23 07:41:54;;;;;;;21.60;9.23;;;;;;;4.43;78.77;98965.59;125867;1101;104558;-74
2020/12/23 07:44:23;;;;;;;20.37;8.47;;;;;;;4.39;79.01;98964.87;125796;1101;104503;-72
2020/12/23 07:46:50;;;;;;;19.87;8.63;;;;;;;4.36;79.22;98975.56;125841;1101;104461;-73
2020/12/23 07:49:30;;;;;;;19.03;8.53;;;;;;;4.39;78.91;98993.02;125896;1101;104471;-73
2020/12/23 07:52:02;;;;;;;19.37;8.27;;;;;;;4.42;79.03;98977.06;125947;1101;104478;-72
2020/12/23 07:54:29;;;;;;;19.90;8.80;;;;;;;4.48;79.31;98979.40;125840;1101;104563;-73
2020/12/23 07:56:56;;;;;;;21.40;9.70;;;;;;;4.49;79.13;98981.08;125881;1101;104483;-73
2020/12/23 07:59:23;;;;;;;20.57;9.00;;;;;;;4.52;78.55;98990.62;125922;1094;104605;-74
2020/12/23 08:01:55;;;;;;;20.85;9.40;;;;;;;4.54;79.26;98986.14;126290;1101;104442;-73
2020/12/23 08:04:22;;;;;;;18.87;8.77;;;;;;;4.56;79.20;98979.02;125875;1101;104426;-73
2020/12/23 08:06:53;;;;;;;18.50;8.03;;;;;;;4.54;78.93;98984.34;125920;1101;104628;-73
2020/12/23 08:09:28;;;;;;;20.73;9.13;;;;;;;4.53;79.11;98987.06;125860;1101;104411;-73
2020/12/23 08:11:54;;;;;;;19.23;8.77;;;;;;;4.56;78.91;98984.28;125884;1101;104443;-73
2020/12/23 08:14:22;;;;;;;20.83;9.80;;;;;;;4.54;78.77;98978.23;126084;1101;104542;-72
2020/12/23 08:16:57;;;;;;;19.20;8.90;;;;;;;4.54;78.87;98983.50;126024;1101;104503;-74
2020/12/23 08:19:24;;;;;;;18.10;8.80;;;;;;;4.53;78.93;98992.33;125850;1101;104563;-73
2020/12/23 08:21:51;;;;;;;19.42;8.53;;;;;;;4.53;79.08;98993.17;125867;1101;104547;-73
2020/12/23 08:24:18;;;;;;;22.20;9.60;;;;;;;4.52;79.04;98990.62;125934;1102;104422;-73
2020/12/23 08:26:46;;;;;;;22.10;9.53;;;;;;;4.55;78.87;98982.57;125797;1102;104491;-73
2020/12/23 08:29:14;;;;;;;22.07;9.73;;;;;;;4.57;79.31;98994.73;125913;1101;104417;-73
2020/12/23 08:31:45;;;;;;;24.50;10.10;;;;;;;4.60;79.10;99001.64;125856;1102;104875;-72
2020/12/23 08:34:16;;;;;;;23.73;10.27;;;;;;;4.60;78.88;99010.39;125856;1101;104968;-73
2020/12/23 08:36:52;;;;;;;23.67;10.13;;;;;;;4.60;78.89;99013.02;125892;1101;104433;-72
2020/12/23 08:39:25;;;;;;;22.43;10.53;;;;;;;4.62;79.56;99010.33;125894;1101;104503;-73
2020/12/23 08:41:54;;;;;;;20.50;9.47;;;;;;;4.61;78.85;99008.63;125830;1102;104602;-71
2020/12/23 08:44:22;;;;;;;19.60;8.20;;;;;;;4.63;78.85;98996.23;125920;1101;104557;-72
2020/12/23 08:46:49;;;;;;;19.67;9.03;;;;;;;4.60;78.98;98994.58;125803;1101;104427;-71
2020/12/23 08:49:19;;;;;;;19.83;9.40;;;;;;;4.59;79.11;99002.58;125808;1101;104417;-72
2020/12/23 08:51:46;;;;;;;20.50;8.80;;;;;;;4.59;78.79;98997.30;125820;1101;104420;-72
2020/12/23 08:54:15;;;;;;;20.43;9.70;;;;;;;4.58;78.96;99000.86;125775;1101;104624;-71
2020/12/23 08:56:49;;;;;;;21.45;9.15;;;;;;;4.60;79.01;99004.28;125891;1101;104416;-72
2020/12/23 08:59:17;;;;;;;20.67;9.90;;;;;;;4.58;79.12;99006.97;125822;1101;104429;-71
2020/12/23 09:01:45;;;;;;;22.50;10.57;;;;;;;4.60;79.26;99007.75;125841;1101;104429;-72
2020/12/23 09:04:13;;;;;;;21.65;9.68;;;;;;;4.64;79.04;98997.06;125824;1101;104586;-70
2020/12/23 09:06:43;;;;;;;20.80;9.05;;;;;;;4.66;79.15;99000.48;125861;1101;104498;-74
2020/12/23 09:09:17;;;;;;;21.70;9.97;;;;;;;4.65;79.39;98998.77;125805;1101;104510;-72
2020/12/23 09:11:47;;;;;;;22.13;9.50;;;;;;;4.65;78.93;98998.77;125819;1101;104538;-72
2020/12/23 09:14:29;;;;;;;19.60;7.50;;;;;;;4.64;78.98;98994.43;126435;1096;104420;-73
2020/12/23 09:17:13;;;;;;;17.10;8.10;;;;;;;4.61;78.88;98991.02;125939;1101;104426;-72
2020/12/23 09:20:04;;;;;;;19.27;9.07;;;;;;;4.59;79.21;98973.59;125850;1101;104429;-72
2020/12/23 09:22:38;;;;;;;18.43;8.70;;;;;;;4.58;79.03;98982.42;125846;1101;104470;-73
2020/12/23 09:25:21;;;;;;;19.40;8.57;;;;;;;4.57;79.11;98978.92;125795;1102;104579;-73
2020/12/23 09:27:55;;;;;;;21.10;8.83;;;;;;;4.59;79.03;98976.23;125842;1101;104465;-73
2020/12/23 09:30:33;;;;;;;21.60;9.10;;;;;;;4.58;79.01;98975.36;125836;1093;104535;-73
2020/12/23 09:33:14;;;;;;;21.17;8.53;;;;;;;4.57;79.31;98971.02;125861;1101;104439;-71
2020/12/23 09:35:47;;;;;;;20.17;8.53;;;;;;;4.57;79.08;98976.28;125794;1101;104736;-74
2020/12/23 09:38:19;;;;;;;19.48;8.95;;;;;;;4.55;79.03;98969.41;125869;1101;104423;-75
2020/12/23 09:40:53;;;;;;;19.27;8.20;;;;;;;4.53;79.37;98965.98;125892;1102;104445;-72
2020/12/23 09:43:23;;;;;;;18.73;8.30;;;;;;;4.51;79.17;98959.94;125856;1101;104443;-73
2020/12/23 09:45:51;;;;;;;19.70;8.00;;;;;;;4.51;78.94;98960.78;125899;1101;104423;-74
2020/12/23 09:48:21;;;;;;;16.63;7.47;;;;;;;4.54;79.06;98963.27;125891;1101;104619;-73
2020/12/23 09:50:54;;;;;;;17.50;7.80;;;;;;;4.53;79.07;98958.92;125754;1101;104596;-71
2020/12/23 09:53:22;;;;;;;18.60;8.90;;;;;;;4.54;79.07;98954.52;125866;1101;104509;-73
2020/12/23 09:55:50;;;;;;;17.70;8.23;;;;;;;4.55;79.22;98953.59;125840;1101;104554;-72
2020/12/23 09:58:19;;;;;;;16.75;6.05;;;;;;;4.53;79.14;98951.02;125884;1093;104443;-70
2020/12/23 10:00:48;;;;;;;20.73;8.97;;;;;;;4.51;79.09;98949.41;125867;1101;104627;-71
2020/12/23 10:03:16;;;;;;;19.40;8.37;;;;;;;4.46;79.02;98945.22;125854;1101;104566;-71
2020/12/23 10:05:43;;;;;;;19.83;8.60;;;;;;;4.45;79.35;98947.94;125823;1101;104519;-70
2020/12/23 10:08:10;;;;;;;17.60;7.30;;;;;;;4.42;79.13;98955.99;125888;1101;104885;-72
2020/12/23 10:10:37;;;;;;;17.53;7.57;;;;;;;4.37;79.32;98943.03;125864;1101;104416;-74
2020/12/23 10:13:04;;;;;;;17.80;7.27;;;;;;;4.35;79.08;98938.78;125763;1101;104547;-73
2020/12/23 10:15:34;;;;;;;17.53;7.30;;;;;;;4.29;79.30;98937.28;125791;1101;104423;-73
2020/12/23 10:18:01;;;;;;;20.73;9.40;;;;;;;4.27;79.11;98945.27;127056;1101;104423;-73
2020/12/23 10:20:28;;;;;;;18.13;7.57;;;;;;;4.25;79.20;98944.48;125827;1101;104474;-71
2020/12/23 10:22:55;;;;;;;17.65;7.03;;;;;;;4.27;79.10;98942.64;125841;1101;104462;-71
2020/12/23 10:25:22;;;;;;;17.07;6.47;;;;;;;4.28;79.30;98933.81;125973;1093;104478;-71
2020/12/23 10:27:49;;;;;;;16.10;6.20;;;;;;;4.26;79.24;98933.03;125937;1101;104484;-74
2020/12/23 10:30:16;;;;;;;20.03;7.83;;;;;;;4.27;79.17;98936.53;125849;1101;104507;-73
2020/12/23 10:32:43;;;;;;;18.10;7.17;;;;;;;4.26;79.01;98917.23;125819;1101;104455;-72
2020/12/23 10:35:10;;;;;;;17.00;6.35;;;;;;;4.27;79.02;98926.84;125942;1101;104442;-72
2020/12/23 10:37:37;;;;;;;16.57;6.60;;;;;;;4.25;78.84;98933.96;125832;1101;104625;-72
2020/12/23 10:40:06;;;;;;;16.10;5.90;;;;;;;4.24;79.49;98920.89;125838;1101;104535;-74
2020/12/23 10:42:34;;;;;;;17.50;6.77;;;;;;;4.24;79.50;98915.62;125833;1101;104483;-72
2020/12/23 10:45:03;;;;;;;19.35;6.90;;;;;;;4.23;79.33;98920.02;125861;1101;104439;-72
2020/12/23 10:47:36;;;;;;;15.83;5.67;;;;;;;4.21;79.46;98921.03;125875;1101;104870;-75
2020/12/23 10:50:03;;;;;;;16.97;6.33;;;;;;;4.18;79.34;98908.85;126949;1101;104528;-73
2020/12/23 10:52:34;;;;;;;15.83;6.27;;;;;;;4.17;79.24;98915.91;125825;1101;104612;-72
2020/12/23 10:55:01;;;;;;;20.60;6.42;;;;;;;4.16;79.22;98902.81;125936;1093;104541;-72
2020/12/23 10:57:33;;;;;;;14.40;6.07;;;;;;;4.16;79.34;98903.68;125703;1101;104413;-72
2020/12/23 11:00:00;;;;;;;17.40;6.67;;;;;;;4.17;79.26;98915.05;126152;1102;104553;-72
2020/12/23 11:02:27;;;;;;;19.13;7.17;;;;;;;4.16;79.13;98908.94;125629;1096;104631;-72
2020/12/23 11:05:29;;;;;;;16.50;6.23;;;;;;;4.14;79.19;98899.39;120205;1148;104463;-72
2020/12/23 11:07:56;;;;;;;14.90;5.77;;;;;;;4.16;79.38;98887.02;120124;1150;104834;-73
2020/12/23 11:10:23;;;;;;;16.70;6.80;;;;;;;4.16;79.63;98892.28;120146;1148;104560;-71
2020/12/23 11:12:50;;;;;;;13.53;5.27;;;;;;;4.17;79.30;98899.25;120700;1150;104438;-72
2020/12/23 11:15:18;;;;;;;16.40;6.40;;;;;;;4.16;79.34;98895.78;120157;1150;104420;-72
2020/12/23 11:17:47;;;;;;;15.60;5.97;;;;;;;4.19;79.31;98892.12;121024;1149;104368;-73
2020/12/23 11:20:14;;;;;;;16.30;5.80;;;;;;;4.21;79.64;98895.54;120219;1149;104339;-71
2020/12/23 11:22:41;;;;;;;16.90;6.40;;;;;;;4.21;79.39;98889.44;120166;1149;104432;-71
2020/12/23 11:25:08;;;;;;;14.87;6.17;;;;;;;4.25;79.63;98897.09;120157;1149;104342;-72
2020/12/23 11:27:35;;;;;;;16.70;6.42;;;;;;;4.28;79.54;98896.95;120074;1148;104410;-72
2020/12/23 11:30:06;;;;;;;17.33;6.33;;;;;;;4.31;79.33;98903.83;120062;1149;104407;-72